Time;durP1;ratioP1;P1;durP2;ratioP2;P2;SDS_P1;SDS_P2;PMS_P1;PMS_P2;Temp;Humidity;BMP_temperature;BMP_pressure;BME280_temperature;BME280_humidity;BME280_pressure;Samples;Min_cycle;Max_cycle;Signal;HPM_P1;HPM_P2
2021/10/16 00:01:47;;;;;;;2.87;1.93;;;;;;;8.42;74.45;99367.13;5089690;28;41247;-80
2021/10/16 00:04:15;;;;;;;2.30;1.87;;;;;;;8.35;74.26;99366.56;5088346;28;39852;-88
2021/10/16 00:06:43;;;;;;;2.70;2.10;;;;;;;8.20;74.42;99354.88;5073283;28;40669;-81
2021/10/16 00:09:11;;;;;;;4.10;2.40;;;;;;;8.24;74.32;99374.06;5071901;28;41985;-85
2021/10/16 00:11:38;;;;;;;2.43;1.73;;;;;;;8.09;74.31;99349.22;5088335;28;41983;-81
2021/10/16 00:14:06;;;;;;;3.43;2.57;;;;;;;8.15;74.07;99369.22;5088533;28;41101;-80
2021/10/16 00:16:33;;;;;;;2.90;2.20;;;;;;;8.04;74.21;99356.47;5071545;28;40670;-83
2021/10/16 00:19:01;;;;;;;3.07;1.80;;;;;;;8.06;74.44;99378.38;5087896;28;42800;-84
2021/10/16 00:21:30;;;;;;;3.00;2.17;;;;;;;8.03;74.06;99375.03;5088295;28;40977;-81
2021/10/16 00:23:58;;;;;;;2.33;2.13;;;;;;;7.97;74.29;99368.22;5090933;28;39823;-83
2021/10/16 00:26:25;;;;;;;3.37;2.07;;;;;;;7.93;74.29;99374.53;5092926;28;41768;-85
2021/10/16 00:28:53;;;;;;;3.27;2.20;;;;;;;7.80;74.54;99357.53;5093591;28;43742;-83
2021/10/16 00:31:21;;;;;;;3.80;3.23;;;;;;;7.78;74.87;99364.69;5125036;27;42089;-83
2021/10/16 00:33:48;;;;;;;2.17;1.97;;;;;;;7.78;74.90;99364.69;5108019;28;39179;-82
2021/10/16 00:36:15;;;;;;;3.00;2.30;;;;;;;7.75;74.85;99370.09;5092481;28;41784;-86
2021/10/16 00:38:45;;;;;;;3.10;2.13;;;;;;;7.71;74.87;99363.22;5125592;27;42688;-79
2021/10/16 00:41:12;;;;;;;3.60;2.37;;;;;;;7.70;74.95;99374.69;5090946;28;42896;-84
2021/10/16 00:43:40;;;;;;;7.53;3.17;;;;;;;7.70;74.65;99372.03;5091336;28;40085;-86
2021/10/16 00:46:07;;;;;;;3.57;2.23;;;;;;;7.68;74.60;99380.03;5074927;28;40887;-85
2021/10/16 00:48:35;;;;;;;4.10;2.63;;;;;;;7.68;74.57;99365.97;5109218;28;41827;-83
2021/10/16 00:51:03;;;;;;;2.87;1.83;;;;;;;7.68;74.69;99369.47;5075516;28;41191;-84
2021/10/16 00:53:30;;;;;;;2.60;1.80;;;;;;;7.60;74.51;99358.41;5074408;28;39053;-81
2021/10/16 00:55:59;;;;;;;2.27;1.73;;;;;;;7.69;74.67;99365.06;5092294;28;42392;-84
2021/10/16 00:58:27;;;;;;;3.13;1.93;;;;;;;7.65;74.78;99363.50;5125347;27;42915;-80
2021/10/16 01:00:55;;;;;;;1.80;1.40;;;;;;;7.70;74.74;99372.03;5091211;28;42183;-81
2021/10/16 01:03:22;;;;;;;1.77;1.47;;;;;;;7.68;74.42;99363.34;5125440;27;40191;-84
2021/10/16 01:05:52;;;;;;;1.57;1.23;;;;;;;7.70;74.49;99361.50;5075187;28;40657;-82
2021/10/16 01:08:20;;;;;;;2.17;1.50;;;;;;;7.69;74.59;99359.78;5107596;28;41850;-81
2021/10/16 01:10:47;;;;;;;2.87;1.70;;;;;;;7.69;74.57;99359.78;5075073;28;41211;-85
2021/10/16 01:13:17;;;;;;;1.73;1.50;;;;;;;7.69;74.61;99360.66;5093494;28;38765;-82
2021/10/16 01:15:46;;;;;;;3.47;2.10;;;;;;;7.62;74.83;99337.25;5070178;28;41818;-85
2021/10/16 01:18:14;;;;;;;3.30;2.10;;;;;;;7.52;74.73;99327.13;5053952;28;42819;-86
2021/10/16 01:20:47;;;;;;;1.77;1.33;;;;;;;7.63;74.63;99339.84;5072525;28;42319;-84
2021/10/16 01:23:17;;;;;;;3.87;1.83;;;;;;;7.74;74.43;99357.81;5069995;28;39343;-81
2021/10/16 01:25:44;;;;;;;3.33;2.20;;;;;;;7.76;74.39;99355.97;5053833;28;40743;-85
2021/10/16 01:28:15;;;;;;;1.73;1.63;;;;;;;7.67;74.42;99344.03;5054163;28;41832;-81
2021/10/16 01:30:43;;;;;;;1.73;1.50;;;;;;;7.71;74.19;99355.31;5053983;28;41296;-86
2021/10/16 01:33:11;;;;;;;2.20;1.70;;;;;;;7.65;74.56;99355.59;5052367;28;39457;-85
2021/10/16 01:35:38;;;;;;;2.33;2.13;;;;;;;7.47;74.49;99349.31;5087536;28;41612;-83
2021/10/16 01:38:06;;;;;;;1.80;1.37;;;;;;;7.46;74.81;99366.88;5053927;28;41409;-83
2021/10/16 01:40:35;;;;;;;1.40;1.30;;;;;;;7.38;74.47;99358.47;5070637;28;42457;-84
2021/10/16 01:43:03;;;;;;;3.53;2.23;;;;;;;7.30;74.75;99357.91;5104053;28;40198;-83
2021/10/16 01:45:31;;;;;;;6.37;2.37;;;;;;;7.07;74.84;99339.53;5053377;28;40600;-84
2021/10/16 01:48:01;;;;;;;1.97;1.33;;;;;;;7.14;74.63;99356.84;5053434;28;41373;-85
2021/10/16 01:50:42;;;;;;;2.30;1.47;;;;;;;7.07;74.75;99371.16;5053159;28;41352;-84
2021/10/16 01:53:16;;;;;;;1.30;1.20;;;;;;;6.97;74.61;99354.00;5052995;28;38342;-81
2021/10/16 01:55:51;;;;;;;1.20;1.00;;;;;;;7.07;74.82;99363.25;5054483;28;41828;-82
2021/10/16 01:58:24;;;;;;;2.50;1.83;;;;;;;7.14;75.03;99367.38;5053103;28;42941;-80
2021/10/16 02:01:12;;;;;;;1.60;1.33;;;;;;;7.18;75.56;99353.13;5053436;28;41828;-84
2021/10/16 02:03:41;;;;;;;2.10;1.73;;;;;;;7.29;75.64;99358.00;5053396;28;40213;-80
2021/10/16 02:06:17;;;;;;;1.50;1.40;;;;;;;7.16;75.53;99333.94;5070131;28;41710;-85
2021/10/16 02:08:49;;;;;;;4.90;2.57;;;;;;;7.38;75.94;99345.28;5052625;28;41857;-87
2021/10/16 02:11:19;;;;;;;3.37;1.80;;;;;;;7.51;75.80;99357.03;5053370;28;42389;-82
2021/10/16 02:13:56;;;;;;;2.30;1.40;;;;;;;7.58;75.76;99361.09;5088941;28;39008;-81
2021/10/16 02:16:25;;;;;;;1.97;1.50;;;;;;;7.67;76.04;99356.34;5072905;28;40675;-81
2021/10/16 02:19:01;;;;;;;2.80;2.00;;;;;;;7.72;75.72;99354.38;5072661;28;41627;-81
2021/10/16 02:21:30;;;;;;;2.63;2.33;;;;;;;7.79;76.00;99364.59;5072395;28;41382;-86
2021/10/16 02:24:00;;;;;;;2.73;1.87;;;;;;;7.84;76.48;99365.28;5106352;28;38694;-77
2021/10/16 02:26:37;;;;;;;1.50;1.40;;;;;;;7.87;76.12;99362.50;5108008;27;40647;-85
2021/10/16 02:29:05;;;;;;;1.17;1.07;;;;;;;7.93;75.90;99372.78;5115662;27;41647;-86
2021/10/16 02:31:37;;;;;;;1.47;1.37;;;;;;;7.93;75.75;99364.00;5093511;28;41093;-81
2021/10/16 02:34:08;;;;;;;2.07;1.83;;;;;;;7.95;75.77;99372.72;5092799;28;40376;-82
2021/10/16 02:36:44;;;;;;;2.37;1.80;;;;;;;7.82;75.96;99348.66;5110240;28;41575;-87
2021/10/16 02:39:11;;;;;;;2.60;1.90;;;;;;;7.87;75.56;99370.41;5092053;28;42067;-79
2021/10/16 02:41:41;;;;;;;2.63;1.83;;;;;;;7.82;75.40;99367.09;5093366;28;41246;-79
2021/10/16 02:44:08;;;;;;;2.13;1.97;;;;;;;7.64;75.47;99345.97;5092212;28;38821;-82
2021/10/16 02:46:41;;;;;;;3.93;2.33;;;;;;;7.71;75.42;99373.75;5091792;28;41104;-84
2021/10/16 02:49:09;;;;;;;2.73;2.00;;;;;;;7.58;75.43;99373.41;5109604;28;43813;-86
2021/10/16 02:51:36;;;;;;;2.07;1.87;;;;;;;7.56;75.25;99381.41;5092641;28;42221;-81
2021/10/16 02:54:05;;;;;;;3.30;2.27;;;;;;;7.49;75.58;99387.84;5092892;28;39000;-81
2021/10/16 02:56:32;;;;;;;1.70;1.50;;;;;;;7.41;75.17;99378.56;5093051;28;41898;-83
2021/10/16 02:59:11;;;;;;;2.87;2.67;;;;;;;7.24;75.44;99373.97;5109182;28;42734;-82
2021/10/16 03:01:47;;;;;;;3.70;2.27;;;;;;;7.26;75.56;99381.81;5109416;28;42906;-83
2021/10/16 03:04:15;;;;;;;1.80;1.53;;;;;;;7.22;75.51;99386.34;5091949;28;40099;-84
2021/10/16 03:06:44;;;;;;;2.27;1.80;;;;;;;7.17;75.43;99388.31;5108773;28;41547;-82
2021/10/16 03:09:16;;;;;;;3.47;2.50;;;;;;;7.14;75.40;99393.72;5109676;28;43468;-81
2021/10/16 03:11:45;;;;;;;3.73;2.07;;;;;;;7.09;75.56;99395.66;5091363;28;42186;-81
2021/10/16 03:14:14;;;;;;;2.10;1.87;;;;;;;7.05;75.87;99404.59;5071618;28;38747;-83
2021/10/16 03:16:44;;;;;;;2.20;1.57;;;;;;;7.00;75.72;99390.75;5086595;28;42661;-81
2021/10/16 03:19:12;;;;;;;2.53;1.70;;;;;;;6.85;75.58;99386.94;5071194;28;42672;-79
2021/10/16 03:21:47;;;;;;;2.80;2.20;;;;;;;6.83;75.75;99389.63;5088439;28;43217;-80
2021/10/16 03:24:27;;;;;;;2.93;2.07;;;;;;;6.77;75.89;99395.16;5071232;28;38928;-81
2021/10/16 03:26:55;;;;;;;3.23;1.93;;;;;;;6.69;76.29;99391.94;5071493;28;40725;-83
2021/10/16 03:29:23;;;;;;;3.83;2.20;;;;;;;6.67;76.44;99403.47;5088880;28;42552;-81
2021/10/16 03:31:51;;;;;;;2.17;1.87;;;;;;;6.63;76.18;99402.72;5087611;28;42234;-80
2021/10/16 03:34:19;;;;;;;2.70;1.67;;;;;;;6.59;76.01;99398.47;5069374;28;38944;-84
2021/10/16 03:36:47;;;;;;;1.30;1.20;;;;;;;6.57;76.14;99409.97;5086027;28;42656;-85
2021/10/16 03:39:15;;;;;;;1.60;1.20;;;;;;;6.53;75.84;99403.13;5069741;28;43388;-79
2021/10/16 03:41:43;;;;;;;1.50;1.33;;;;;;;6.40;75.80;99390.41;5070740;28;41080;-83
2021/10/16 03:44:10;;;;;;;1.73;1.50;;;;;;;6.36;75.88;99386.19;5070513;28;39193;-84
2021/10/16 03:46:39;;;;;;;1.97;1.50;;;;;;;6.22;75.78;99371.81;5071779;28;40795;-83
2021/10/16 03:49:07;;;;;;;2.90;1.40;;;;;;;6.19;75.66;99383.28;5088085;28;42787;-80
2021/10/16 03:51:35;;;;;;;1.10;1.10;;;;;;;6.26;75.48;99397.09;5071979;28;42252;-81
2021/10/16 03:54:04;;;;;;;1.40;1.30;;;;;;;6.20;75.57;99384.16;5088251;28;40915;-80
2021/10/16 03:56:32;;;;;;;1.63;1.10;;;;;;;6.27;75.48;99398.81;5089018;28;42484;-80
2021/10/16 03:58:59;;;;;;;1.33;1.23;;;;;;;6.25;75.38;99390.13;5075261;28;42522;-84
2021/10/16 04:01:27;;;;;;;1.60;1.50;;;;;;;6.26;75.44;99397.09;5074616;28;42451;-81
2021/10/16 04:03:56;;;;;;;2.23;1.80;;;;;;;6.23;75.25;99386.69;5075059;28;38496;-85
2021/10/16 04:06:23;;;;;;;1.43;1.33;;;;;;;6.29;75.12;99391.72;5074267;28;40625;-82
2021/10/16 04:08:51;;;;;;;1.00;1.00;;;;;;;6.40;75.23;99405.34;5074044;28;41588;-78
2021/10/16 04:11:22;;;;;;;1.87;1.20;;;;;;;6.37;75.21;99401.03;5091833;28;42425;-82
2021/10/16 04:13:50;;;;;;;1.50;1.27;;;;;;;6.40;75.58;99397.44;5088462;28;39799;-78
2021/10/16 04:16:18;;;;;;;1.23;1.13;;;;;;;6.42;75.25;99408.78;5072303;28;40920;-83
2021/10/16 04:18:46;;;;;;;1.20;1.10;;;;;;;6.43;75.48;99403.44;5089973;28;43430;-83
2021/10/16 04:21:15;;;;;;;1.40;1.30;;;;;;;6.39;75.61;99388.69;5089150;28;41938;-80
2021/10/16 04:23:47;;;;;;;1.67;1.40;;;;;;;6.53;75.54;99403.97;5091110;28;40436;-78
2021/10/16 04:26:14;;;;;;;1.20;1.10;;;;;;;6.58;75.21;99414.31;5090681;28;40573;-79
2021/10/16 04:28:42;;;;;;;1.20;1.10;;;;;;;6.59;74.94;99409.00;5091999;28;42855;-79
2021/10/16 04:31:18;;;;;;;0.90;0.90;;;;;;;6.65;74.96;99403.50;5091084;28;41523;-77
2021/10/16 04:33:46;;;;;;;0.80;0.80;;;;;;;6.73;75.01;99411.97;5081677;28;39871;-79
2021/10/16 04:36:15;;;;;;;1.80;1.30;;;;;;;6.74;74.71;99411.06;5095737;28;42020;-80
2021/10/16 04:38:46;;;;;;;1.30;1.20;;;;;;;6.61;74.82;99382.63;5079614;28;41614;-79
2021/10/16 04:41:13;;;;;;;1.57;1.20;;;;;;;6.75;75.14;99402.25;5095951;28;43408;-79
2021/10/16 04:43:42;;;;;;;1.10;1.00;;;;;;;6.76;75.27;99408.38;5076930;28;39039;-82
2021/10/16 04:46:10;;;;;;;1.70;1.60;;;;;;;6.61;75.23;99399.28;5090280;28;42603;-83
2021/10/16 04:48:39;;;;;;;1.80;1.23;;;;;;;6.67;75.18;99414.84;5090361;28;42677;-84
2021/10/16 04:51:07;;;;;;;1.20;1.10;;;;;;;6.61;75.18;99409.81;5072133;28;42334;-82
2021/10/16 04:53:36;;;;;;;2.40;1.20;;;;;;;6.61;75.25;99420.31;5073362;28;40628;-79
2021/10/16 04:56:04;;;;;;;1.03;0.97;;;;;;;6.59;75.30;99416.03;5073791;28;40624;-82
2021/10/16 04:58:33;;;;;;;1.27;1.17;;;;;;;6.56;74.98;99411.72;5073829;28;42020;-84
2021/10/16 05:01:01;;;;;;;1.10;1.00;;;;;;;6.56;75.11;99417.00;5073603;28;41153;-88
2021/10/16 05:03:29;;;;;;;2.63;1.50;;;;;;;6.54;75.01;99418.84;5089975;28;40083;-80
2021/10/16 05:05:56;;;;;;;1.60;1.30;;;;;;;6.41;74.86;99401.81;5090196;28;42707;-82
2021/10/16 05:08:27;;;;;;;1.60;0.90;;;;;;;6.46;74.91;99405.97;5071152;28;42164;-83
2021/10/16 05:10:56;;;;;;;2.00;1.07;;;;;;;6.43;75.13;99399.94;5089665;28;42283;-85
2021/10/16 05:13:24;;;;;;;1.80;1.40;;;;;;;6.55;75.12;99414.44;5089528;28;40001;-79
2021/10/16 05:15:52;;;;;;;1.27;1.17;;;;;;;6.53;74.88;99417.13;5090883;28;41324;-80
2021/10/16 05:18:21;;;;;;;2.87;1.40;;;;;;;6.46;75.41;99405.97;5072636;28;42048;-82
2021/10/16 05:20:52;;;;;;;2.23;1.30;;;;;;;6.48;75.22;99416.44;5073463;28;41453;-84
2021/10/16 05:23:24;;;;;;;1.93;1.37;;;;;;;6.52;75.22;99425.94;5072816;28;39342;-86
2021/10/16 05:25:53;;;;;;;1.73;1.60;;;;;;;6.43;75.47;99410.47;5073143;28;40998;-82
2021/10/16 05:28:23;;;;;;;1.40;1.30;;;;;;;6.53;75.23;99422.41;5072729;28;42123;-85
2021/10/16 05:30:54;;;;;;;1.27;1.20;;;;;;;6.54;75.60;99428.53;5072634;28;42733;-83
2021/10/16 05:33:22;;;;;;;1.40;1.30;;;;;;;6.53;75.22;99432.91;5076754;28;39785;-86
2021/10/16 05:35:53;;;;;;;1.47;1.20;;;;;;;6.51;75.17;99429.47;5089599;28;41774;-82
2021/10/16 05:38:23;;;;;;;2.07;1.80;;;;;;;6.55;75.27;99430.22;5106832;28;41756;-84
2021/10/16 05:40:51;;;;;;;1.30;1.17;;;;;;;6.42;75.47;99419.31;5072638;28;41952;-83
2021/10/16 05:43:19;;;;;;;1.50;1.40;;;;;;;6.50;75.47;99422.50;5089468;28;40943;-80
2021/10/16 05:45:49;;;;;;;1.97;1.27;;;;;;;6.45;75.54;99430.56;5089466;28;42470;-85
2021/10/16 05:48:16;;;;;;;1.37;1.10;;;;;;;6.46;75.36;99442.78;5089051;28;42772;-82
2021/10/16 05:50:45;;;;;;;1.73;1.07;;;;;;;6.54;75.36;99453.06;5072529;28;41272;-81
2021/10/16 05:53:15;;;;;;;1.33;1.23;;;;;;;6.56;75.64;99453.84;5088574;28;40927;-83
2021/10/16 05:55:43;;;;;;;1.27;1.17;;;;;;;6.54;75.59;99447.78;5073365;28;40981;-82
2021/10/16 05:58:11;;;;;;;1.00;0.90;;;;;;;6.57;75.15;99447.66;5072020;28;42862;-81
2021/10/16 06:00:38;;;;;;;1.77;1.57;;;;;;;6.56;75.41;99438.03;5089739;28;42208;-86
2021/10/16 06:03:07;;;;;;;1.37;1.10;;;;;;;6.62;75.42;99453.63;5072247;28;39122;-81
2021/10/16 06:05:42;;;;;;;1.37;1.27;;;;;;;6.67;75.45;99456.97;5069515;28;42494;-82
2021/10/16 06:08:10;;;;;;;2.37;1.43;;;;;;;6.64;75.49;99443.91;5068674;28;42034;-84
2021/10/16 06:10:37;;;;;;;1.30;1.20;;;;;;;6.75;75.50;99457.53;5072861;28;41303;-82
2021/10/16 06:13:05;;;;;;;2.23;1.43;;;;;;;6.69;75.40;99448.97;5071983;28;38986;-82
2021/10/16 06:15:33;;;;;;;1.03;1.00;;;;;;;6.73;75.78;99458.50;5071887;28;40545;-82
2021/10/16 06:18:03;;;;;;;1.33;1.07;;;;;;;6.82;75.63;99474.78;5071779;28;41709;-84
2021/10/16 06:20:33;;;;;;;1.40;1.07;;;;;;;6.89;75.39;99482.47;5070141;28;41647;-80
2021/10/16 06:23:02;;;;;;;1.73;1.53;;;;;;;6.84;75.31;99465.06;5071964;28;40386;-82
2021/10/16 06:25:29;;;;;;;1.23;0.97;;;;;;;6.85;75.19;99466.78;5088186;28;42603;-82
2021/10/16 06:27:57;;;;;;;1.70;1.30;;;;;;;6.93;75.35;99469.13;5088648;28;43299;-82
2021/10/16 06:30:25;;;;;;;1.73;1.30;;;;;;;7.10;75.00;99486.91;5088833;28;43192;-80
2021/10/16 06:32:52;;;;;;;1.57;1.43;;;;;;;7.09;75.08;99479.94;5088886;28;40308;-81
2021/10/16 06:35:20;;;;;;;2.70;1.57;;;;;;;7.08;75.29;99491.38;5088666;28;41399;-85
2021/10/16 06:37:52;;;;;;;1.33;1.23;;;;;;;7.14;75.28;99483.25;5087605;28;43349;-83
2021/10/16 06:40:21;;;;;;;2.30;1.80;;;;;;;7.24;75.63;99487.25;5087006;28;43277;-79
2021/10/16 06:42:55;;;;;;;2.00;1.80;;;;;;;7.32;75.22;99487.78;5070471;28;40158;-84
2021/10/16 06:45:29;;;;;;;1.10;1.07;;;;;;;7.38;75.03;99492.84;5086534;28;41808;-83
2021/10/16 06:48:07;;;;;;;2.07;1.60;;;;;;;7.46;74.99;99496.03;5070848;28;41801;-83
2021/10/16 06:51:04;;;;;;;2.00;1.43;;;;;;;7.42;74.62;99494.41;5067075;28;41302;-85
2021/10/16 06:53:33;;;;;;;1.70;1.50;;;;;;;7.45;74.74;99502.19;5070616;28;39008;-84
2021/10/16 06:56:00;;;;;;;1.43;1.20;;;;;;;7.49;74.75;99506.44;5088135;28;42631;-83
2021/10/16 06:58:28;;;;;;;2.20;1.87;;;;;;;7.48;74.82;99504.72;5071168;28;42477;-79
2021/10/16 07:00:56;;;;;;;2.23;1.20;;;;;;;7.52;74.69;99501.06;5070966;28;42117;-80
2021/10/16 07:03:43;;;;;;;1.20;1.10;;;;;;;7.55;74.24;99513.22;5089234;28;39563;-83
2021/10/16 07:06:11;;;;;;;1.67;1.50;;;;;;;7.66;73.96;99512.84;5068792;28;40322;-82
2021/10/16 07:08:41;;;;;;;1.93;1.37;;;;;;;7.83;73.92;99519.13;5087036;28;43693;-82
2021/10/16 07:11:09;;;;;;;1.50;1.40;;;;;;;8.00;73.52;99515.81;5070888;28;41351;-81
2021/10/16 07:13:36;;;;;;;2.10;1.40;;;;;;;8.11;73.46;99515.34;5069970;28;39901;-84
2021/10/16 07:16:05;;;;;;;1.40;1.30;;;;;;;8.14;73.46;99515.22;5070694;28;41444;-81
2021/10/16 07:18:33;;;;;;;1.60;1.50;;;;;;;8.17;73.09;99513.31;5088112;28;43240;-81
2021/10/16 07:21:00;;;;;;;1.90;1.70;;;;;;;8.27;73.08;99516.44;5070224;28;41332;-83
2021/10/16 07:23:28;;;;;;;1.17;1.17;;;;;;;8.35;72.56;99508.22;5070849;28;38869;-84
2021/10/16 07:25:58;;;;;;;1.70;1.53;;;;;;;8.54;72.44;99511.75;5070848;28;40107;-84
2021/10/16 07:28:27;;;;;;;1.50;1.40;;;;;;;8.64;72.20;99515.72;5087487;28;43045;-86
2021/10/16 07:30:54;;;;;;;3.17;1.60;;;;;;;8.67;72.11;99515.56;5087575;28;42888;-84
2021/10/16 07:33:22;;;;;;;1.33;1.23;;;;;;;8.76;71.92;99512.53;5086361;28;39031;-80
2021/10/16 07:35:50;;;;;;;1.03;0.90;;;;;;;8.94;71.54;99519.63;5071471;28;40867;-80
2021/10/16 07:38:18;;;;;;;2.07;1.50;;;;;;;8.88;71.05;99509.34;5120921;27;42665;-82
2021/10/16 07:40:45;;;;;;;1.13;1.10;;;;;;;9.04;70.98;99535.06;5087646;28;41231;-82
2021/10/16 07:43:15;;;;;;;1.13;1.03;;;;;;;9.06;70.72;99538.47;5088518;28;20253;-82
2021/10/16 07:45:43;;;;;;;1.80;1.40;;;;;;;9.05;70.42;99526.19;5088820;28;41013;-79
2021/10/16 07:48:10;;;;;;;1.50;1.37;;;;;;;9.21;70.54;99545.72;5070039;28;41630;-80
2021/10/16 07:50:38;;;;;;;1.47;1.07;;;;;;;9.09;69.98;99515.44;5071009;28;42067;-82
2021/10/16 07:53:05;;;;;;;1.17;0.97;;;;;;;9.20;69.62;99539.56;5071033;28;38914;-84
2021/10/16 07:55:33;;;;;;;1.43;1.23;;;;;;;9.30;69.85;99540.84;5071093;28;41695;-82
2021/10/16 07:58:01;;;;;;;2.80;1.10;;;;;;;9.44;69.96;99544.66;5070933;28;41709;-81
2021/10/16 08:00:30;;;;;;;1.57;1.37;;;;;;;9.32;69.71;99530.22;5087281;28;41459;-81
2021/10/16 08:02:58;;;;;;;1.57;1.17;;;;;;;9.45;69.60;99546.38;5071480;28;39711;-82
2021/10/16 08:05:25;;;;;;;1.17;1.03;;;;;;;9.45;68.93;99556.94;5070233;28;40738;-83
2021/10/16 08:07:53;;;;;;;1.20;0.97;;;;;;;9.37;69.06;99536.16;5122585;27;43255;-86
2021/10/16 08:10:21;;;;;;;1.47;1.00;;;;;;;9.42;68.84;99535.94;5071797;28;41026;-86
2021/10/16 08:12:49;;;;;;;0.93;0.90;;;;;;;9.49;68.76;99553.22;5071109;28;39094;-81
2021/10/16 08:15:17;;;;;;;1.10;1.00;;;;;;;9.61;68.77;99563.22;5066863;28;41434;-86
2021/10/16 08:17:46;;;;;;;1.00;1.00;;;;;;;9.51;68.61;99562.81;5046794;28;42835;-83
2021/10/16 08:20:13;;;;;;;1.50;1.17;;;;;;;9.35;68.67;99530.09;5070246;28;40908;-82
2021/10/16 08:22:42;;;;;;;1.50;1.23;;;;;;;9.64;68.99;99563.91;5085931;28;39858;-84
2021/10/16 08:25:11;;;;;;;5.67;3.17;;;;;;;9.70;68.60;99561.00;5085012;28;42038;-83
2021/10/16 08:27:39;;;;;;;2.83;1.80;;;;;;;9.83;68.13;99568.34;5084753;28;41819;-85
2021/10/16 08:30:09;;;;;;;1.53;1.37;;;;;;;9.91;67.99;99568.81;5069919;28;42395;-84
2021/10/16 08:32:38;;;;;;;1.87;1.77;;;;;;;10.01;67.53;99570.13;5069150;28;38789;-84
2021/10/16 08:35:08;;;;;;;2.60;1.67;;;;;;;10.05;67.63;99563.72;5067479;28;41080;-82
2021/10/16 08:37:35;;;;;;;1.47;1.37;;;;;;;10.06;67.86;99554.84;5085079;28;42877;-80
2021/10/16 08:40:04;;;;;;;1.43;1.30;;;;;;;10.27;67.31;99572.34;5069428;28;42611;-82
2021/10/16 08:42:33;;;;;;;1.50;1.20;;;;;;;10.32;67.16;99557.09;5068637;28;39631;-83
2021/10/16 08:45:01;;;;;;;3.20;1.73;;;;;;;10.50;67.18;99560.63;5071782;28;41722;-80
2021/10/16 08:47:32;;;;;;;2.47;2.00;;;;;;;10.62;65.87;99570.59;5089741;28;42877;-80
2021/10/16 08:50:01;;;;;;;2.30;1.43;;;;;;;10.72;66.09;99586.88;5072641;28;42127;-79
2021/10/16 08:52:30;;;;;;;2.10;1.90;;;;;;;10.64;65.46;99562.53;5071593;28;39167;-79
2021/10/16 08:54:57;;;;;;;2.43;1.30;;;;;;;10.83;65.25;99578.34;5074320;28;41660;-79
2021/10/16 08:57:31;;;;;;;2.10;1.80;;;;;;;10.97;65.15;99583.78;5088422;28;42772;-80
2021/10/16 08:59:58;;;;;;;2.00;1.43;;;;;;;10.98;65.12;99567.81;5090385;28;42076;-80
2021/10/16 09:02:36;;;;;;;2.13;1.90;;;;;;;11.10;64.58;99561.88;5071305;28;39454;-80
2021/10/16 09:05:11;;;;;;;2.00;1.33;;;;;;;11.18;64.55;99563.25;5072548;28;40693;-80
2021/10/16 09:07:40;;;;;;;1.60;1.33;;;;;;;11.34;64.41;99585.34;5072614;28;41816;-80
2021/10/16 09:10:22;;;;;;;1.40;1.30;;;;;;;11.41;64.48;99581.41;5072954;28;41284;-81
2021/10/16 09:12:54;;;;;;;2.30;1.50;;;;;;;11.52;63.64;99586.97;5089432;28;39861;-78
2021/10/16 09:15:23;;;;;;;1.20;1.10;;;;;;;11.48;63.59;99574.84;5069615;28;41576;-80
2021/10/16 09:18:04;;;;;;;2.20;1.40;;;;;;;11.63;63.50;99587.25;5071143;28;43230;-79
2021/10/16 09:20:37;;;;;;;1.77;1.50;;;;;;;11.55;63.08;99578.88;5072222;28;40858;-79
2021/10/16 09:23:07;;;;;;;2.17;1.77;;;;;;;11.63;63.70;99579.28;5072022;28;40115;-80
2021/10/16 09:25:35;;;;;;;2.47;1.87;;;;;;;11.67;62.94;99594.09;5071638;28;43607;-80
2021/10/16 09:28:21;;;;;;;3.23;1.90;;;;;;;11.72;62.96;99591.22;5088688;28;42755;-79
2021/10/16 09:30:49;;;;;;;1.80;1.53;;;;;;;11.74;62.90;99589.34;5088760;28;42402;-79
2021/10/16 09:33:19;;;;;;;1.37;1.27;;;;;;;11.81;63.19;99585.41;5087399;28;39072;-78
2021/10/16 09:35:47;;;;;;;1.77;1.67;;;;;;;11.81;62.91;99575.66;5062300;28;42420;-80
2021/10/16 09:38:17;;;;;;;5.20;3.10;;;;;;;12.02;63.19;99578.03;5071707;28;41864;-80
2021/10/16 09:40:44;;;;;;;2.97;1.60;;;;;;;12.14;62.77;99585.28;5068544;28;41898;-78
2021/10/16 09:43:18;;;;;;;2.87;1.60;;;;;;;12.19;62.53;99575.28;5070959;28;40658;-78
2021/10/16 09:45:46;;;;;;;1.53;1.37;;;;;;;12.37;62.93;99574.19;5083329;28;40918;-77
2021/10/16 09:48:33;;;;;;;2.13;1.70;;;;;;;12.49;62.25;99568.16;5069383;28;41731;-77
2021/10/16 09:51:02;;;;;;;1.83;1.63;;;;;;;12.70;61.64;99578.50;5087319;28;41876;-78
2021/10/16 09:53:31;;;;;;;4.40;2.10;;;;;;;12.86;61.35;99579.25;5088123;28;40103;-81
2021/10/16 09:55:58;;;;;;;2.70;1.60;;;;;;;12.95;60.71;99560.13;5070258;28;40482;-80
2021/10/16 09:58:26;;;;;;;1.53;1.43;;;;;;;13.12;60.34;99578.53;5084433;28;43603;-81
2021/10/16 10:00:54;;;;;;;2.30;1.90;;;;;;;13.13;60.02;99574.94;5086171;28;42215;-79
2021/10/16 10:03:24;;;;;;;2.07;1.87;;;;;;;13.13;59.48;99580.25;5103017;27;39174;-78
2021/10/16 10:05:52;;;;;;;1.90;1.50;;;;;;;13.06;60.16;99565.63;5070312;28;40079;-78
2021/10/16 10:08:21;;;;;;;2.63;1.80;;;;;;;13.15;59.97;99566.88;5085086;28;44046;-79
2021/10/16 10:10:50;;;;;;;2.20;1.63;;;;;;;13.23;60.90;99573.44;5069177;28;42074;-79
2021/10/16 10:13:18;;;;;;;2.43;2.23;;;;;;;13.22;60.73;99563.78;5087878;28;40314;-79
2021/10/16 10:15:45;;;;;;;2.30;1.73;;;;;;;13.28;60.60;99576.69;5070564;28;40789;-79
2021/10/16 10:20:59;;;;;;;4.53;2.80;;;;;;;13.32;59.65;99577.34;5086370;28;42131;-78
2021/10/16 10:23:28;;;;;;;2.80;2.00;;;;;;;13.37;59.77;99571.72;5088112;28;40229;-78
2021/10/16 10:26:38;;;;;;;2.43;2.23;;;;;;;13.45;59.79;99572.13;5084672;28;41774;-77
2021/10/16 10:29:07;;;;;;;2.37;1.77;;;;;;;13.55;59.69;99575.91;5085478;28;42796;-77
2021/10/16 10:31:58;;;;;;;2.00;1.90;;;;;;;13.69;60.03;99572.38;5070222;28;42457;-79
2021/10/16 10:34:29;;;;;;;2.57;1.93;;;;;;;13.70;58.90;99576.75;5070371;28;39220;-77
2021/10/16 10:37:01;;;;;;;2.70;2.27;;;;;;;13.75;59.16;99572.81;5069037;28;42010;-80
2021/10/16 10:39:51;;;;;;;2.67;2.17;;;;;;;13.91;59.22;99570.03;5087477;28;42681;-78
2021/10/16 10:42:50;;;;;;;2.87;1.97;;;;;;;14.07;58.92;99577.88;5084821;28;43190;-78
2021/10/16 10:45:38;;;;;;;2.53;2.10;;;;;;;14.12;58.56;99573.09;5068722;28;40081;-78
2021/10/16 10:48:17;;;;;;;1.80;1.67;;;;;;;14.13;58.42;99566.81;5069546;28;40823;-80
2021/10/16 10:50:57;;;;;;;2.43;1.93;;;;;;;14.19;58.74;99566.44;5070486;28;41725;-80
2021/10/16 10:53:33;;;;;;;2.37;2.17;;;;;;;14.33;57.46;99547.72;5120863;27;42233;-80
2021/10/16 10:56:02;;;;;;;1.90;1.50;;;;;;;14.81;57.35;99564.03;5070033;28;39347;-78
2021/10/16 10:59:02;;;;;;;2.47;2.27;;;;;;;15.00;57.04;99569.81;5086842;28;41104;-79
2021/10/16 11:02:05;;;;;;;2.03;1.80;;;;;;;15.15;56.01;99563.41;5085761;28;42769;-77
2021/10/16 11:04:46;;;;;;;2.27;1.93;;;;;;;15.29;56.12;99555.28;5070640;28;41443;-80
2021/10/16 11:07:16;;;;;;;1.60;1.47;;;;;;;15.28;56.22;99547.41;5083785;28;39802;-77
2021/10/16 11:09:44;;;;;;;3.17;2.83;;;;;;;15.42;55.76;99553.47;5069950;28;40928;-80
2021/10/16 11:12:14;;;;;;;3.17;2.87;;;;;;;15.62;55.51;99548.53;5070717;28;42093;-80
2021/10/16 11:14:44;;;;;;;2.53;2.33;;;;;;;15.68;54.10;99561.47;5069825;28;41649;-77
2021/10/16 11:17:13;;;;;;;2.40;2.20;;;;;;;15.75;55.04;99552.03;5087142;28;40600;-79
2021/10/16 11:19:51;;;;;;;3.70;2.20;;;;;;;15.89;54.85;99546.53;5069343;28;41051;-79
2021/10/16 11:22:19;;;;;;;6.87;4.03;;;;;;;16.23;53.93;99547.56;5086734;28;41795;-80
2021/10/16 11:24:47;;;;;;;5.87;3.03;;;;;;;17.65;51.84;99550.78;5085979;28;42554;-78
2021/10/16 11:27:22;;;;;;;2.57;2.00;;;;;;;19.30;49.18;99569.97;5085823;28;40717;-78
2021/10/16 11:29:51;;;;;;;2.70;2.40;;;;;;;22.48;42.95;99599.38;5086424;28;41740;-80
2021/10/16 11:32:21;;;;;;;2.30;2.10;;;;;;;24.48;38.28;99622.66;5069563;28;41768;-79
2021/10/16 11:34:56;;;;;;;2.53;2.00;;;;;;;25.86;36.18;99609.91;5087985;28;43166;-79
2021/10/16 11:37:39;;;;;;;2.10;2.00;;;;;;;27.92;33.49;99637.13;5068826;28;40034;-81
2021/10/16 11:40:10;;;;;;;2.17;1.97;;;;;;;29.62;30.48;99646.38;5119850;27;41489;-82
2021/10/16 11:42:38;;;;;;;2.50;2.30;;;;;;;31.55;27.33;99652.34;5058505;28;42926;-81
2021/10/16 11:45:17;;;;;;;1.80;1.70;;;;;;;33.07;25.14;99663.66;5066853;28;41229;-79
2021/10/16 11:47:49;;;;;;;1.90;1.80;;;;;;;33.97;23.86;99661.47;5085350;28;40106;-80
2021/10/16 11:50:19;;;;;;;2.37;2.23;;;;;;;34.29;23.30;99648.41;5085459;28;41544;-79
2021/10/16 11:52:49;;;;;;;2.37;2.17;;;;;;;34.18;23.54;99633.50;5087138;28;41603;-81
2021/10/16 11:55:22;;;;;;;2.20;2.00;;;;;;;34.42;23.37;99639.16;5085210;28;42477;-79
2021/10/16 11:57:51;;;;;;;1.97;1.80;;;;;;;34.84;22.71;99637.34;5088056;28;39978;-81